Latest Weather Observations for Gladstone Airport

IDQ60801

Issued at 6:31 pm EST Wednesday 10 February 2016 (issued every 30 minutes, with the page automatically refreshed every 10 minutes)

About weather observations | Map of weather stations | Latest weather observations for QLD | Other Formats
Station Details ID: 039326 Name: GLADSTONE AIRPORT Lat: -23.87 Lon: 151.22 Height: 16.6 m
Data from the previous 72 hours. | See also: Recent months at Gladstone Airport
Date/Time
EST
Temp
°C
App
Temp
°C
Dew
Point
Rel
Hum
%
Delta-T
°C
Wind Press
QNH
hPa
Press
MSL
hPa
Rain
since 9 am
mm
Dir
 
Spd
km/h
Gust
km/h
Spd
kts
Gust
kts
10/06:30pm 27.0 26.9 18.8 60 5.3 SE 17 26 9 14 1010.0 1009.9 0.0
10/06:00pm 28.0 27.2 19.2 58 5.7 ESE 22 30 12 16 1009.5 1009.4 0.0
10/05:30pm 28.5 26.6 19.4 57 5.9 ESE 28 37 15 20 1009.4 1009.3 0.0
10/05:00pm 27.9 27.7 20.5 64 4.9 E 22 32 12 17 1009.2 1009.1 0.0
10/04:30pm 28.2 27.1 20.2 62 5.3 E 26 35 14 19 1009.0 1008.9 0.0
10/04:00pm 29.5 27.2 20.1 57 6.2 E 32 39 17 21 1008.8 1008.7 0.0
10/03:30pm 29.1 28.3 20.8 61 5.5 ENE 26 33 14 18 1008.7 1008.6 0.0
10/03:00pm 29.6 29.2 19.0 53 6.9 E 19 28 10 15 1008.7 1008.6 0.0
10/02:30pm 29.7 30.5 19.1 53 6.9 SE 13 20 7 11 1008.9 1008.8 0.0
10/02:00pm 29.4 29.8 19.1 54 6.7 SE 15 26 8 14 1009.3 1009.2 0.0
10/01:30pm 28.6 28.0 18.4 54 6.5 SE 19 32 10 17 1009.8 1009.7 0.0
10/01:00pm 28.3 27.4 17.8 53 6.7 SE 19 28 10 15 1010.4 1010.3 0.0
10/12:30pm 28.4 28.3 18.8 56 6.2 SE 17 26 9 14 1010.9 1010.8 0.0
10/12:00pm 27.7 27.0 18.7 58 5.8 SE 20 32 11 17 1011.3 1011.2 0.0
10/11:30am 28.7 27.5 18.5 54 6.5 ESE 22 30 12 16 1011.3 1011.2 0.0
10/11:00am 28.9 27.8 17.7 50 7.1 SE 20 28 11 15 1011.2 1011.1 0.0
10/10:30am 28.8 27.7 17.7 51 7.0 SE 20 37 11 20 1011.3 1011.2 0.0
10/10:00am 28.4 27.2 17.6 52 6.8 SE 20 33 11 18 1011.2 1011.1 0.0
10/09:30am 27.9 27.4 17.7 53 6.5 SE 17 32 9 17 1011.3 1011.2 0.0
10/09:00am 27.2 26.1 17.4 55 6.2 SSE 19 28 10 15 1011.4 1011.3 0.0
10/08:30am 27.0 26.7 18.3 59 5.5 SSE 17 28 9 15 1011.7 1011.6 0.0
10/08:00am 25.6 25.5 17.8 62 4.9 SSE 15 26 8 14 1011.6 1011.5 0.0
10/07:30am 24.3 23.8 17.8 67 4.1 SSE 17 28 9 15 1011.3 1011.2 0.0
10/07:00am 24.1 23.6 17.8 68 3.9 SSE 17 28 9 15 1011.1 1011.0 0.0
10/06:30am 23.6 23.5 17.8 70 3.6 SSE 15 24 8 13 1011.1 1011.0 0.0
10/06:00am 23.1 23.0 17.8 72 3.3 SSE 15 24 8 13 1010.7 1010.6 0.0
10/05:30am 22.9 22.7 17.6 72 3.3 SSE 15 20 8 11 1010.5 1010.4 0.0
10/05:00am 22.9 22.7 17.6 72 3.3 SSE 15 24 8 13 1010.3 1010.2 0.0
10/04:30am 22.8 22.9 17.5 72 3.3 SSE 13 22 7 12 1010.1 1010.0 0.0
10/04:00am 23.0 22.8 17.7 72 3.3 SSE 15 26 8 14 1010.0 1009.9 0.0
10/03:30am 23.0 22.8 17.5 71 3.4 SSE 15 20 8 11 1010.0 1009.9 0.0
10/03:00am 23.1 23.0 17.8 72 3.3 SSE 15 26 8 14 1010.1 1010.0 0.0
10/02:30am 23.2 22.9 17.4 70 3.6 SSE 15 24 8 13 1010.3 1010.2 0.0
10/02:00am 23.3 22.6 17.3 69 3.7 SSE 17 26 9 14 1010.5 1010.4 0.0
10/01:30am 23.4 22.6 17.2 68 3.8 SSE 17 24 9 13 1010.7 1010.6 0.0
10/01:00am 23.6 22.2 17.1 67 4.0 SSE 20 32 11 17 1011.1 1011.0 0.0
10/12:30am 23.6 23.1 16.9 66 4.1 SSE 15 20 8 11 1011.6 1011.5 0.0
10/12:00am 23.8 23.3 16.8 65 4.3 SSE 15 32 8 17 1012.1 1012.0 0.0
 
Date/Time
EST
Temp
°C
App
Temp
°C
Dew
Point
Rel
Hum
%
Delta-T
°C
Wind Press
QNH
hPa
Press
MSL
hPa
Rain
since 9 am
mm
Dir
 
Spd
km/h
Gust
km/h
Spd
kts
Gust
kts
09/11:30pm 24.0 23.7 16.5 63 4.6 SSE 13 20 7 11 1012.5 1012.4 0.0
09/11:00pm 24.5 23.8 16.5 61 4.9 SE 15 20 8 11 1012.9 1012.8 0.0
09/10:30pm 24.8 24.6 16.8 61 4.9 SSE 13 20 7 11 1013.0 1012.9 0.0
09/10:00pm 25.3 24.5 17.0 60 5.1 SE 17 32 9 17 1013.1 1013.0 0.0
09/09:30pm 25.7 24.0 17.1 59 5.3 SE 22 32 12 17 1013.0 1012.9 0.0
09/09:00pm 25.9 24.2 17.3 59 5.4 SE 22 35 12 19 1013.0 1012.9 0.0
09/08:30pm 26.2 24.1 18.1 61 5.1 ESE 26 46 14 25 1012.9 1012.8 0.0
09/08:21pm 26.3 23.9 18.2 61 5.1 SE 28 46 15 25 1012.8 1012.7 0.0
09/08:00pm 26.4 24.1 18.5 62 5.0 ESE 28 43 15 23 1012.8 1012.7 0.0
09/07:30pm 26.8 24.5 18.4 60 5.3 ESE 28 41 15 22 1012.8 1012.7 0.0
09/07:00pm 26.9 23.7 18.5 60 5.4 ESE 33 44 18 24 1012.3 1012.2 0.0
09/06:30pm 27.2 24.1 18.8 60 5.4 ESE 33 43 18 23 1011.8 1011.7 0.0
09/06:00pm 27.7 24.9 19.0 59 5.6 ESE 32 44 17 24 1011.4 1011.3 0.0
09/05:37pm 27.9 24.2 18.3 56 6.1 ESE 35 54 19 29 1010.9 1010.8 0.0
09/05:30pm 28.3 24.4 18.7 56 6.2 ESE 37 48 20 26 1010.9 1010.8 0.0
09/05:00pm 29.1 26.5 19.4 55 6.3 E 32 46 17 25 1010.6 1010.5 0.0
09/04:30pm 28.6 24.9 19.2 56 6.1 ESE 37 48 20 26 1010.5 1010.4 0.0
09/04:00pm 29.9 27.4 20.2 56 6.4 E 33 48 18 26 1010.4 1010.3 0.0
09/03:30pm 30.2 26.8 18.9 50 7.3 E 35 48 19 26 1010.5 1010.4 0.0
09/03:00pm 29.8 25.8 18.6 51 7.2 ESE 37 46 20 25 1010.7 1010.6 0.0
09/02:30pm 29.4 26.4 19.1 54 6.7 ESE 33 43 18 23 1010.9 1010.8 0.0
09/02:00pm 29.9 27.3 17.7 48 7.8 ESE 28 41 15 22 1011.2 1011.1 0.0
09/01:30pm 30.2 27.9 17.6 46 8.0 ESE 26 33 14 18 1011.5 1011.4 0.0
09/01:00pm 30.0 29.2 18.1 49 7.6 SE 19 30 10 16 1011.7 1011.6 0.0
09/12:30pm 30.7 29.1 18.4 47 7.9 SE 24 37 13 20 1011.9 1011.8 0.0
09/12:00pm 30.0 28.3 18.1 49 7.6 SE 24 32 13 17 1012.1 1012.0 0.0
09/11:30am 29.3 27.7 18.4 51 7.0 SE 24 35 13 19 1012.3 1012.2 0.0
09/11:00am 28.9 27.5 18.7 54 6.6 SE 24 37 13 20 1012.6 1012.5 0.0
09/10:30am 28.4 25.6 18.2 54 6.5 SE 30 43 16 23 1013.0 1012.9 0.0
09/10:00am 28.2 26.6 19.2 58 5.8 SE 26 37 14 20 1012.9 1012.8 0.0
09/09:30am 27.4 25.6 18.7 59 5.6 SSE 26 37 14 20 1013.0 1012.9 0.0
09/09:00am 27.1 25.5 18.4 59 5.5 SE 24 35 13 19 1012.9 1012.8 0.0
09/08:30am 26.5 24.8 18.9 63 4.9 SSE 26 35 14 19 1013.0 1012.9 0.0
09/08:00am 26.3 25.6 18.7 63 4.9 SSE 20 33 11 18 1012.9 1012.8 0.0
09/07:30am 25.2 24.1 18.6 67 4.2 SE 22 33 12 18 1012.8 1012.7 0.0
09/07:00am 24.4 23.8 18.8 71 3.6 SE 20 33 11 18 1012.8 1012.7 0.0
09/06:30am 23.6 23.5 18.7 74 3.1 SSE 17 26 9 14 1012.5 1012.4 0.0
09/06:00am 23.1 23.7 18.6 76 2.8 SSE 13 20 7 11 1012.4 1012.3 0.0
09/05:30am 23.0 23.9 18.5 76 2.8 SSE 11 20 6 11 1012.0 1011.9 0.0
09/05:00am 23.1 23.6 18.4 75 3.0 SSE 13 24 7 13 1011.6 1011.5 0.0
09/04:30am 23.2 23.7 18.3 74 3.1 S 13 22 7 12 1011.5 1011.4 0.0
09/04:00am 23.4 23.9 18.3 73 3.2 SSE 13 22 7 12 1011.3 1011.2 0.0
09/03:30am 23.6 23.7 18.3 72 3.3 SSE 15 22 8 12 1011.2 1011.1 0.0
09/03:00am 23.9 23.6 18.3 71 3.5 SSE 17 28 9 15 1011.1 1011.0 0.0
09/02:30am 23.8 24.3 18.4 72 3.4 SSE 13 20 7 11 1011.3 1011.2 0.0
09/02:00am 23.8 24.3 18.4 72 3.4 SSE 13 19 7 10 1011.7 1011.6 0.0
09/01:30am 23.7 25.0 18.4 72 3.3 S 9 19 5 10 1012.0 1011.9 0.0
09/01:00am 23.9 25.1 18.3 71 3.5 S 9 15 5 8 1012.4 1012.3 0.0
09/12:30am 24.4 25.3 18.3 69 3.8 SSE 11 17 6 9 1012.7 1012.6 0.0
09/12:00am 24.7 26.0 18.4 68 4.0 SSE 9 17 5 9 1012.9 1012.8 0.0
 
Date/Time
EST
Temp
°C
App
Temp
°C
Dew
Point
Rel
Hum
%
Delta-T
°C
Wind Press
QNH
hPa
Press
MSL
hPa
Rain
since 9 am
mm
Dir
 
Spd
km/h
Gust
km/h
Spd
kts
Gust
kts
08/11:30pm 25.2 25.0 18.6 67 4.2 SE 17 24 9 13 1013.0 1012.9 0.0
08/11:00pm 25.5 24.8 18.7 66 4.3 SE 20 30 11 16 1013.1 1013.0 0.0
08/10:30pm 25.9 25.2 18.6 64 4.6 SE 20 30 11 16 1013.5 1013.4 0.0
08/10:00pm 26.1 25.5 18.8 64 4.7 ESE 20 30 11 16 1013.4 1013.3 0.0
08/09:30pm 26.4 24.2 18.8 63 4.9 ESE 28 39 15 21 1013.3 1013.2 0.0
08/09:00pm 26.5 24.3 18.6 62 5.0 ESE 28 37 15 20 1013.1 1013.0 0.0
08/08:30pm 26.6 24.6 18.2 60 5.3 ESE 26 37 14 20 1012.8 1012.7 0.0
08/08:00pm 26.7 23.9 18.3 60 5.3 ESE 30 39 16 21 1012.5 1012.4 0.0
08/07:30pm 26.7 24.3 19.1 63 4.9 ESE 30 44 16 24 1012.3 1012.2 0.0
08/07:00pm 26.8 24.9 19.4 64 4.8 ESE 28 39 15 21 1012.0 1011.9 0.0
08/06:30pm 27.4 24.7 19.2 61 5.3 ESE 32 44 17 24 1011.6 1011.5 0.0
08/06:00pm 27.8 25.1 19.3 60 5.5 ESE 32 44 17 24 1011.1 1011.0 0.0
08/05:30pm 28.1 25.3 18.2 55 6.3 ESE 30 39 16 21 1010.8 1010.7 0.0
08/05:00pm 28.2 25.2 18.6 56 6.2 E 32 46 17 25 1010.4 1010.3 0.0
08/04:31pm 28.4 26.0 19.1 57 6.0 E 30 48 16 26 1010.2 1010.1 0.0
08/04:30pm 28.5 26.2 19.4 57 5.9 E 30 44 16 24 1010.2 1010.1 0.0
08/04:00pm 29.1 26.3 19.1 54 6.5 E 32 44 17 24 1010.0 1009.9 0.0
08/03:30pm 29.2 27.4 19.5 56 6.3 E 28 39 15 21 1010.1 1010.0 0.0
08/03:00pm 29.8 27.7 18.9 52 7.1 E 28 33 15 18 1010.3 1010.2 0.0
08/02:30pm 29.9 28.2 19.0 52 7.1 E 26 35 14 19 1010.7 1010.6 0.0
08/02:00pm 30.1 29.3 20.1 55 6.6 ESE 24 33 13 18 1010.9 1010.8 0.0
08/01:30pm 29.9 27.5 18.3 49 7.4 E 28 37 15 20 1011.2 1011.1 0.0
08/01:00pm 30.0 28.4 19.1 52 7.1 E 26 35 14 19 1011.5 1011.4 0.0
08/12:30pm 30.1 29.4 19.5 53 6.9 ESE 22 37 12 20 1011.9 1011.8 0.0
08/12:00pm 29.8 29.9 19.2 53 6.9 SE 17 24 9 13 1012.3 1012.2 0.0
08/11:30am 28.8 27.6 18.3 53 6.7 SE 22 30 12 16 1012.7 1012.6 0.0
08/11:00am 28.2 27.5 18.3 55 6.3 SE 19 30 10 16 1012.9 1012.8 0.0
08/10:30am 28.0 27.5 18.7 57 6.0 SE 19 28 10 15 1013.3 1013.2 0.0
08/10:00am 27.4 26.1 18.1 57 5.9 SE 22 35 12 19 1013.3 1013.2 0.0
08/09:30am 27.3 26.1 18.3 58 5.7 SE 22 37 12 20 1013.4 1013.3 0.0
08/09:00am 26.3 24.1 17.9 60 5.3 SE 26 41 14 22 1013.4 1013.3 0.0
08/08:30am 25.9 24.7 18.3 63 4.8 SSE 22 35 12 19 1013.4 1013.3 0.0
08/08:00am 25.3 24.2 18.7 67 4.2 SE 22 32 12 17 1013.3 1013.2 0.0
08/07:30am 24.9 24.8 18.8 69 3.9 SSE 17 32 9 17 1013.2 1013.1 0.0
08/07:00am 24.7 24.0 18.6 69 3.9 SE 20 32 11 17 1012.8 1012.7 0.0
08/06:30am 24.3 23.6 18.7 71 3.6 SSE 20 30 11 16 1012.7 1012.6 0.0
08/06:00am 24.1 24.2 19.2 74 3.1 SSE 17 24 9 13 1012.2 1012.1 0.0
08/05:30am 23.9 24.0 19.2 75 3.0 SSE 17 32 9 17 1012.2 1012.1 0.0
08/05:00am 24.1 24.7 19.4 75 3.0 SSE 15 24 8 13 1012.0 1011.9 0.0
08/04:30am 24.3 24.9 19.4 74 3.1 SSE 15 24 8 13 1011.7 1011.6 0.0
08/04:00am 24.2 24.5 19.5 75 3.0 SSE 17 30 9 16 1011.6 1011.5 0.0
08/03:30am 24.1 24.8 19.6 76 2.9 SSE 15 22 8 12 1011.5 1011.4 0.0
08/03:00am 24.1 24.4 19.6 76 2.9 SSE 17 24 9 13 1011.4 1011.3 0.0
08/02:30am 24.0 24.6 19.5 76 2.9 SSE 15 24 8 13 1011.4 1011.3 0.0
08/02:00am 24.0 24.3 19.7 77 2.8 SSE 17 28 9 15 1011.7 1011.6 0.0
08/01:30am 24.0 24.3 19.7 77 2.8 SSE 17 22 9 12 1011.9 1011.8 0.0
08/01:00am 24.2 25.5 20.1 78 2.7 SSE 13 22 7 12 1012.2 1012.1 0.0
08/12:30am 24.4 25.3 20.1 77 2.8 SSE 15 26 8 14 1012.5 1012.4 0.0
08/12:00am 24.8 25.8 20.3 76 2.9 SE 15 26 8 14 1012.8 1012.7 0.0
 
Date/Time
EST
Temp
°C
App
Temp
°C
Dew
Point
Rel
Hum
%
Delta-T
°C
Wind Press
QNH
hPa
Press
MSL
hPa
Rain
since 9 am
mm
Dir
 
Spd
km/h
Gust
km/h
Spd
kts
Gust
kts
07/11:30pm 24.9 26.3 20.4 76 2.9 SE 13 17 7 9 1012.9 1012.8 0.0
07/11:00pm 25.0 26.5 20.5 76 2.9 SSE 13 20 7 11 1012.9 1012.8 0.0
07/10:30pm 25.6 26.3 20.4 73 3.4 SE 17 24 9 13 1013.0 1012.9 0.0
07/10:00pm 25.7 26.6 20.9 75 3.2 SE 17 33 9 18 1012.8 1012.7 0.0
07/09:30pm 25.9 26.5 21.1 75 3.2 SE 19 22 10 12 1012.7 1012.6 0.0
07/09:00pm 26.4 27.7 20.9 72 3.6 SE 15 20 8 11 1012.3 1012.2 0.0
07/08:30pm 26.6 26.9 20.7 70 3.9 SE 20 30 11 16 1012.1 1012.0 0.0
07/08:00pm 26.9 27.7 20.7 69 4.1 SE 17 28 9 15 1011.8 1011.7 0.0
07/07:30pm 27.2 27.8 21.0 69 4.1 SE 19 26 10 14 1011.4 1011.3 0.0
07/07:00pm 27.3 27.3 21.6 71 3.8 ESE 24 33 13 18 1011.0 1010.9 0.0

Other Formats:

Comma delimited format used in spreadsheet applications
http://www.bom.gov.au/fwo/IDQ60801/IDQ60801.94381.axf

JavaScript Object Notation format (JSON) in row-major order
http://www.bom.gov.au/fwo/IDQ60801/IDQ60801.94381.json